createdAt,value
2018-08-30T00:02:18.668Z,100081.11
2018-08-30T00:04:49.929Z,100076.81
2018-08-30T00:07:18.127Z,100082.00
2018-08-30T00:09:46.471Z,100089.97
2018-08-30T00:12:14.746Z,100092.86
2018-08-30T00:14:43.105Z,100094.03
2018-08-30T00:17:11.630Z,100095.67
2018-08-30T00:19:39.886Z,100099.16
2018-08-30T00:22:08.657Z,100101.98
2018-08-30T00:24:37.071Z,100103.83
2018-08-30T00:27:05.597Z,100110.45
2018-08-30T00:29:34.281Z,100123.06
2018-08-30T00:32:02.877Z,100126.55
2018-08-30T00:34:31.353Z,100124.23
2018-08-30T00:36:59.659Z,100133.70
2018-08-30T00:39:27.894Z,100129.06
2018-08-30T00:41:56.179Z,100131.05
2018-08-30T00:44:24.410Z,100134.70
2018-08-30T00:46:52.624Z,100125.42
2018-08-30T00:49:20.903Z,100128.90
2018-08-30T00:51:49.197Z,100136.69
2018-08-30T00:54:17.383Z,100138.51
2018-08-30T00:56:45.647Z,100142.98
2018-08-30T00:59:13.804Z,100142.18
2018-08-30T01:01:42.129Z,100143.67
2018-08-30T01:04:10.445Z,100145.64
2018-08-30T01:06:38.833Z,100145.30
2018-08-30T01:09:08.050Z,100149.45
2018-08-30T01:11:36.518Z,100150.30
2018-08-30T01:14:04.745Z,100147.95
2018-08-30T01:16:33.242Z,100157.58
2018-08-30T01:19:01.368Z,100152.79
2018-08-30T01:21:31.693Z,100162.88
2018-08-30T01:23:59.990Z,100159.58
2018-08-30T01:26:28.057Z,100165.55
2018-08-30T01:28:56.424Z,100170.52
2018-08-30T01:31:24.781Z,100169.34
2018-08-30T01:33:53.024Z,100172.00
2018-08-30T01:36:21.341Z,100174.01
2018-08-30T01:38:49.687Z,100167.84
2018-08-30T01:41:17.864Z,100169.84
2018-08-30T01:43:46.114Z,100175.64
2018-08-30T01:46:14.269Z,100171.34
2018-08-30T01:48:42.659Z,100173.45
2018-08-30T01:51:10.790Z,100175.14
2018-08-30T01:53:39.076Z,100175.75
2018-08-30T01:56:07.374Z,100173.95
2018-08-30T01:58:35.552Z,100176.25
2018-08-30T02:01:03.744Z,100171.09
2018-08-30T02:03:31.799Z,100184.52
2018-08-30T02:05:59.877Z,100182.98
2018-08-30T02:08:28.061Z,100187.63
2018-08-30T02:10:56.453Z,100184.81
2018-08-30T02:13:24.935Z,100188.31
2018-08-30T02:15:53.381Z,100188.28
2018-08-30T02:18:21.517Z,100190.78
2018-08-30T02:20:49.934Z,100183.31
2018-08-30T02:23:18.437Z,100200.23
2018-08-30T02:25:47.173Z,100197.09
2018-08-30T02:28:15.704Z,100205.21
2018-08-30T02:30:44.145Z,100206.53
2018-08-30T02:33:12.660Z,100204.59
2018-08-30T02:35:41.702Z,100207.06
2018-08-30T02:38:09.656Z,100209.36
2018-08-30T02:40:38.428Z,100210.71
2018-08-30T02:43:06.986Z,100214.66
2018-08-30T02:45:35.525Z,100212.52
2018-08-30T02:48:03.989Z,100222.44
2018-08-30T02:50:32.108Z,100225.91
2018-08-30T02:53:00.440Z,100225.77
2018-08-30T02:55:28.626Z,100227.41
2018-08-30T02:57:56.865Z,100229.24
2018-08-30T03:00:25.053Z,100228.56
2018-08-30T03:02:53.325Z,100233.07
2018-08-30T03:05:21.617Z,100233.57
2018-08-30T03:07:50.068Z,100234.55
2018-08-30T03:10:18.827Z,100233.86
2018-08-30T03:12:47.825Z,100236.37
2018-08-30T03:15:16.846Z,100240.67
2018-08-30T03:17:45.461Z,100239.52
2018-08-30T03:20:14.822Z,100240.02
2018-08-30T03:22:43.553Z,100246.83
2018-08-30T03:25:12.092Z,100245.64
2018-08-30T03:27:40.546Z,100248.98
2018-08-30T03:30:09.189Z,100252.74
2018-08-30T03:32:37.388Z,100255.57
2018-08-30T03:35:05.892Z,100247.62
2018-08-30T03:37:34.043Z,100259.55
2018-08-30T03:40:02.424Z,100262.02
2018-08-30T03:42:30.615Z,100258.52
2018-08-30T03:44:58.772Z,100264.45
2018-08-30T03:47:26.927Z,100260.45
2018-08-30T03:49:55.184Z,100269.40
2018-08-30T03:52:23.425Z,100264.09
2018-08-30T03:54:51.683Z,100266.07
2018-08-30T03:57:19.791Z,100266.89
2018-08-30T03:59:47.976Z,100271.19
2018-08-30T04:02:16.219Z,100273.98
2018-08-30T04:04:44.543Z,100276.98
2018-08-30T04:07:12.739Z,100277.30
2018-08-30T04:09:41.018Z,100287.58
2018-08-30T04:12:09.237Z,100287.58
2018-08-30T04:14:37.326Z,100292.06
2018-08-30T04:17:05.677Z,100294.52
2018-08-30T04:19:33.840Z,100294.84
2018-08-30T04:22:02.017Z,100300.78
2018-08-30T04:24:30.232Z,100296.00
2018-08-30T04:26:58.471Z,100298.31
2018-08-30T04:29:27.669Z,100299.28
2018-08-30T04:31:55.888Z,100298.50
2018-08-30T04:34:24.026Z,100307.08
2018-08-30T04:36:52.193Z,100302.11
2018-08-30T04:39:20.329Z,100309.05
2018-08-30T04:41:49.133Z,100313.89
2018-08-30T04:44:18.145Z,100307.73
2018-08-30T04:46:47.358Z,100316.86
2018-08-30T04:49:16.021Z,100325.95
2018-08-30T04:51:45.048Z,100327.32
2018-08-30T04:54:13.158Z,100318.52
2018-08-30T04:56:41.458Z,100329.11
2018-08-30T04:59:09.783Z,100331.48
2018-08-30T05:01:38.141Z,100330.62
2018-08-30T05:04:06.544Z,100329.01
2018-08-30T05:06:35.185Z,100335.63
2018-08-30T05:09:03.686Z,100340.06
2018-08-30T05:11:31.945Z,100342.72
2018-08-30T05:14:00.226Z,100350.34
2018-08-30T05:16:28.449Z,100351.86
2018-08-30T05:18:56.559Z,100355.33
2018-08-30T05:21:24.693Z,100357.34
2018-08-30T05:23:53.059Z,100358.16
2018-08-30T05:26:21.465Z,100354.05
2018-08-30T05:28:49.735Z,100357.52
2018-08-30T05:31:17.975Z,100358.22
2018-08-30T05:33:46.287Z,100362.52
2018-08-30T05:36:14.625Z,100363.38
2018-08-30T05:38:42.985Z,100370.65
2018-08-30T05:41:11.368Z,100371.88
2018-08-30T05:43:39.755Z,100374.85
2018-08-30T05:46:08.201Z,100377.50
2018-08-30T05:48:36.410Z,100381.34
2018-08-30T05:51:04.662Z,100389.80
2018-08-30T05:53:32.945Z,100386.28
2018-08-30T05:56:09.045Z,100384.95
2018-08-30T05:58:37.135Z,100385.31
2018-08-30T06:01:05.330Z,100386.31
2018-08-30T06:03:33.488Z,100388.83
2018-08-30T06:06:07.675Z,100385.14
2018-08-30T06:08:36.034Z,100391.48
2018-08-30T06:11:05.005Z,100393.17
2018-08-30T06:13:33.345Z,100401.45
2018-08-30T06:16:16.043Z,100404.28
2018-08-30T06:18:44.193Z,100408.80
2018-08-30T06:21:12.595Z,100410.52
2018-08-30T06:23:42.899Z,100409.19
2018-08-30T06:26:11.659Z,100408.52
2018-08-30T06:28:39.919Z,100415.19
2018-08-30T06:31:24.721Z,100418.84
2018-08-30T06:33:53.117Z,100413.10
2018-08-30T06:36:21.504Z,100424.39
2018-08-30T06:38:50.072Z,100423.27
2018-08-30T06:44:04.952Z,100428.61
2018-08-30T06:46:34.507Z,100437.55
2018-08-30T06:49:03.563Z,100442.88
2018-08-30T06:51:32.001Z,100447.19
2018-08-30T06:54:00.454Z,100445.23
2018-08-30T06:56:28.834Z,100449.37
2018-08-30T06:58:57.066Z,100447.11
2018-08-30T07:01:25.613Z,100449.27
2018-08-30T07:03:55.030Z,100452.12
2018-08-30T07:06:23.496Z,100454.95
2018-08-30T07:08:51.859Z,100459.44
2018-08-30T07:11:20.265Z,100455.00
2018-08-30T07:13:48.745Z,100464.66
2018-08-30T07:16:17.755Z,100460.30
2018-08-30T07:18:46.209Z,100456.67
2018-08-30T07:21:14.479Z,100469.30
2018-08-30T07:23:42.905Z,100466.80
2018-08-30T07:26:11.175Z,100460.31
2018-08-30T07:28:39.955Z,100473.11
2018-08-30T07:31:08.185Z,100474.93
2018-08-30T07:33:36.769Z,100473.45
2018-08-30T07:36:05.203Z,100479.02
2018-08-30T07:38:33.561Z,100486.29
2018-08-30T07:41:02.501Z,100490.42
2018-08-30T07:43:31.261Z,100498.00
2018-08-30T07:45:59.566Z,100493.81
2018-08-30T07:48:27.797Z,100505.26
2018-08-30T07:50:56.021Z,100506.22
2018-08-30T07:53:24.467Z,100502.06
2018-08-30T07:55:52.985Z,100502.74
2018-08-30T07:58:21.325Z,100505.11
2018-08-30T08:00:49.804Z,100500.52
2018-08-30T08:03:19.444Z,100507.03
2018-08-30T08:05:47.800Z,100512.36
2018-08-30T08:08:16.308Z,100514.55
2018-08-30T08:10:44.745Z,100512.16
2018-08-30T08:13:13.223Z,100513.16
2018-08-30T08:15:41.335Z,100520.30
2018-08-30T08:18:09.574Z,100513.99
2018-08-30T08:20:37.969Z,100526.80
2018-08-30T08:23:06.139Z,100527.11
2018-08-30T08:25:34.220Z,100526.27
2018-08-30T08:28:02.436Z,100528.80
2018-08-30T08:30:30.821Z,100531.45
2018-08-30T08:33:01.108Z,100532.79
2018-08-30T08:35:29.329Z,100535.77
2018-08-30T08:37:57.742Z,100547.39
2018-08-30T08:40:36.168Z,100538.42
2018-08-30T08:43:04.388Z,100544.91
2018-08-30T08:45:32.920Z,100550.56
2018-08-30T08:48:01.225Z,100547.06
2018-08-30T08:50:29.417Z,100560.53
2018-08-30T08:52:57.586Z,100554.70
2018-08-30T08:55:26.146Z,100556.21
2018-08-30T08:57:54.361Z,100556.70
2018-08-30T09:00:23.535Z,100550.69
2018-08-30T09:02:51.815Z,100554.06
2018-08-30T09:05:20.120Z,100532.94
2018-08-30T09:07:48.363Z,100545.73
2018-08-30T09:10:16.894Z,100553.87
2018-08-30T09:12:45.294Z,100553.66
2018-08-30T09:15:13.634Z,100567.25
2018-08-30T09:17:42.005Z,100556.59
2018-08-30T10:14:10.689Z,100566.47
2018-08-30T10:16:39.050Z,100586.80
2018-08-30T10:19:31.487Z,100588.61
2018-08-30T10:21:59.605Z,100596.23
2018-08-30T10:24:28.465Z,100592.66
2018-08-30T10:29:50.047Z,100591.51
2018-08-30T10:32:58.665Z,100589.48
2018-08-30T10:35:26.670Z,100592.55
2018-08-30T10:37:54.907Z,100590.78
2018-08-30T10:40:23.430Z,100600.92
2018-08-30T10:42:51.801Z,100601.48
2018-08-30T10:45:21.517Z,100605.06
2018-08-30T10:47:49.646Z,100595.68
2018-08-30T10:50:21.137Z,100600.65
2018-08-30T10:52:49.156Z,100599.86
2018-08-30T10:55:21.964Z,100597.98
2018-08-30T10:57:49.935Z,100597.94
2018-08-30T11:00:18.364Z,100604.42
2018-08-30T11:02:46.397Z,100599.14
2018-08-30T11:05:14.513Z,100589.87
2018-08-30T11:07:42.814Z,100585.70
2018-08-30T11:10:11.303Z,100580.17
2018-08-30T11:12:40.412Z,100590.76
2018-08-30T11:15:08.573Z,100596.19
2018-08-30T11:17:36.612Z,100586.17
2018-08-30T11:20:04.878Z,100594.69
2018-08-30T11:22:33.616Z,100590.89
2018-08-30T11:25:01.959Z,100588.57
2018-08-30T11:27:30.831Z,100598.99
2018-08-30T11:29:58.791Z,100602.67
2018-08-30T11:32:26.837Z,100588.89
2018-08-30T11:34:54.794Z,100590.28
2018-08-30T11:37:22.879Z,100583.17
2018-08-30T11:39:50.839Z,100584.02
2018-08-30T11:42:19.092Z,100593.88
2018-08-30T12:17:47.227Z,100602.42
2018-08-30T12:26:01.469Z,100602.61
2018-08-30T12:28:29.791Z,100603.02
2018-08-30T12:30:58.228Z,100602.91
2018-08-30T12:36:19.516Z,100607.38
2018-08-30T12:38:48.542Z,100602.20
2018-08-30T12:41:25.485Z,100604.25
2018-08-30T12:43:55.130Z,100609.41
2018-08-30T12:46:23.144Z,100611.48
2018-08-30T12:48:51.082Z,100610.75
2018-08-30T13:08:33.377Z,100635.67
2018-08-30T13:11:13.405Z,100640.34
2018-08-30T15:53:41.015Z,100794.96
2018-08-30T16:03:31.798Z,100809.45
2018-08-30T16:09:24.401Z,100826.19
2018-08-30T16:11:52.576Z,100824.96
2018-08-30T16:20:08.190Z,100836.55
2018-08-30T16:29:16.022Z,100842.17
2018-08-30T16:32:50.406Z,100836.98
2018-08-30T16:39:25.762Z,100848.61
2018-08-30T16:47:53.296Z,100854.62
2018-08-30T16:50:36.096Z,100851.66
2018-08-30T17:04:55.166Z,100840.59
2018-08-30T17:07:26.450Z,100826.13
2018-08-30T17:10:00.071Z,100840.53
2018-08-30T17:12:30.303Z,100837.88
2018-08-30T17:42:04.604Z,100838.20
2018-08-30T17:44:33.128Z,100838.84
2018-08-30T17:47:02.155Z,100837.41
2018-08-30T17:49:30.488Z,100841.94
2018-08-30T17:51:59.236Z,100837.28
2018-08-30T17:54:27.807Z,100842.28
2018-08-30T17:56:56.636Z,100839.75
2018-08-30T17:59:25.210Z,100843.61
2018-08-30T18:01:54.055Z,100842.41
2018-08-30T18:07:29.521Z,100843.02
2018-08-30T18:09:58.008Z,100840.48
2018-08-30T18:12:31.615Z,100842.58
2018-08-30T18:15:16.696Z,100846.88
2018-08-30T18:20:39.145Z,100839.42
2018-08-30T18:23:12.864Z,100836.38
2018-08-30T18:25:41.744Z,100847.20
2018-08-30T18:28:10.325Z,100848.21
2018-08-30T18:30:38.942Z,100856.63
2018-08-30T18:36:17.376Z,100856.22
2018-08-30T18:38:52.159Z,100864.68
2018-08-30T20:30:01.003Z,100942.08
2018-08-30T20:32:29.981Z,100957.30
2018-08-30T20:40:42.835Z,100952.28
2018-08-30T20:43:12.295Z,100956.30
2018-08-30T21:00:10.750Z,100946.94
2018-08-30T21:08:31.417Z,100937.38
2018-08-30T21:35:13.900Z,100952.91
2018-08-30T21:37:42.242Z,100956.47
2018-08-30T21:46:53.099Z,100963.05
2018-08-30T21:49:31.099Z,100957.29
2018-08-30T21:52:07.419Z,100961.03
2018-08-30T21:54:52.139Z,100960.86
2018-08-30T22:00:12.901Z,100961.14
2018-08-30T22:02:41.021Z,100968.50
2018-08-30T22:05:09.209Z,100975.45
2018-08-30T22:07:37.364Z,100970.98
2018-08-30T22:10:05.745Z,100975.92
2018-08-30T22:12:33.827Z,100966.64
2018-08-30T22:15:01.825Z,100967.88
2018-08-30T22:17:29.887Z,100966.25
2018-08-30T22:19:57.910Z,100964.03
2018-08-30T22:22:25.965Z,100969.09
2018-08-30T22:24:54.030Z,100967.53
2018-08-30T22:34:15.005Z,100971.33
2018-08-30T22:36:43.103Z,100971.44
2018-08-30T22:39:12.174Z,100969.15
2018-08-30T22:47:45.579Z,100968.52
2018-08-30T22:50:13.361Z,100970.05
2018-08-30T22:55:44.440Z,100976.55
2018-08-30T22:58:12.623Z,100980.16
2018-08-30T23:00:40.658Z,100974.64
2018-08-30T23:03:08.796Z,100971.64
2018-08-30T23:05:37.116Z,100973.09
2018-08-30T23:08:05.496Z,100973.12
2018-08-30T23:10:33.776Z,100976.59
2018-08-30T23:13:01.939Z,100980.56
2018-08-30T23:15:30.221Z,100979.45
2018-08-30T23:17:58.491Z,100976.23
2018-08-30T23:20:26.829Z,100973.84
2018-08-30T23:22:54.826Z,100977.45
2018-08-30T23:25:23.080Z,100978.63
2018-08-30T23:27:51.251Z,100983.56
2018-08-30T23:30:19.462Z,100983.31
2018-08-30T23:32:47.504Z,100981.64
2018-08-30T23:35:15.831Z,100984.14
2018-08-30T23:37:43.951Z,100979.60
2018-08-30T23:40:12.074Z,100980.92
2018-08-30T23:42:40.104Z,100975.13
2018-08-30T23:45:08.572Z,100970.62
2018-08-30T23:47:36.559Z,100964.11
2018-08-30T23:50:04.850Z,100967.57
2018-08-30T23:52:32.917Z,100969.13
2018-08-30T23:55:00.939Z,100968.63
2018-08-30T23:57:28.979Z,100971.60
